Time;durP1;ratioP1;P1;durP2;ratioP2;P2;SDS_P1;SDS_P2;PMS_P1;PMS_P2;Temp;Humidity;BMP_temperature;BMP_pressure;BME280_temperature;BME280_humidity;BME280_pressure;Samples;Min_cycle;Max_cycle;Signal;HPM_P1;HPM_P2
2023/09/07 00:01:25;;;;;;;2.67;1.80;;;;;;;;;;4971429;28;20117;-72
2023/09/07 00:03:50;;;;;;;2.83;1.88;;;;;;;;;;4971272;28;20129;-72
2023/09/07 00:06:16;;;;;;;2.10;1.65;;;;;;;;;;4971073;28;20113;-72
2023/09/07 00:08:43;;;;;;;3.53;1.73;;;;;;;;;;4971267;28;20043;-72
2023/09/07 00:11:09;;;;;;;1.70;1.60;;;;;;;;;;4971001;28;20047;-71
2023/09/07 00:13:35;;;;;;;2.25;2.15;;;;;;;;;;4971060;28;20430;-72
2023/09/07 00:16:02;;;;;;;4.15;2.65;;;;;;;;;;4971108;28;20449;-72
2023/09/07 00:18:28;;;;;;;3.05;1.90;;;;;;;;;;4971226;28;20031;-71
2023/09/07 00:20:54;;;;;;;2.45;1.60;;;;;;;;;;4970978;28;20039;-72
2023/09/07 00:23:20;;;;;;;1.85;1.52;;;;;;;;;;4971001;28;20097;-73
2023/09/07 00:25:46;;;;;;;1.42;1.33;;;;;;;;;;4953770;28;20063;-70
2023/09/07 00:28:12;;;;;;;3.90;1.30;;;;;;;;;;4970850;28;20039;-72
2023/09/07 00:30:39;;;;;;;1.15;1.15;;;;;;;;;;4971365;28;20069;-74
2023/09/07 00:33:05;;;;;;;1.35;1.00;;;;;;;;;;4969562;28;20061;-73
2023/09/07 00:35:31;;;;;;;1.95;1.13;;;;;;;;;;4970983;28;20046;-72
2023/09/07 00:37:57;;;;;;;1.38;1.20;;;;;;;;;;4950056;28;20052;-72
2023/09/07 00:40:25;;;;;;;1.95;0.90;;;;;;;;;;4950544;29;20031;-72
2023/09/07 00:42:51;;;;;;;2.13;1.20;;;;;;;;;;4951728;28;20059;-72
2023/09/07 00:45:17;;;;;;;1.42;1.33;;;;;;;;;;4952250;28;20590;-72
2023/09/07 00:47:44;;;;;;;1.08;0.98;;;;;;;;;;4970492;28;20043;-72
2023/09/07 00:50:13;;;;;;;1.98;1.20;;;;;;;;;;4955059;28;20043;-74
2023/09/07 00:52:40;;;;;;;1.75;1.27;;;;;;;;;;4938761;29;20054;-72
2023/09/07 00:55:06;;;;;;;3.28;1.10;;;;;;;;;;4953996;29;20384;-70
2023/09/07 00:57:32;;;;;;;1.88;1.05;;;;;;;;;;4954150;29;20039;-72
2023/09/07 00:59:59;;;;;;;2.28;1.20;;;;;;;;;;4954967;29;20067;-72
2023/09/07 01:02:25;;;;;;;2.70;1.25;;;;;;;;;;4955219;28;20046;-73
2023/09/07 01:04:52;;;;;;;1.95;1.10;;;;;;;;;;4969972;28;20512;-72
2023/09/07 01:07:19;;;;;;;2.75;1.30;;;;;;;;;;4969530;28;20129;-72
2023/09/07 01:09:45;;;;;;;0.80;0.80;;;;;;;;;;4937823;29;20065;-71
2023/09/07 01:12:15;;;;;;;1.00;0.90;;;;;;;;;;4953530;29;20042;-72
2023/09/07 01:14:41;;;;;;;1.50;1.33;;;;;;;;;;4953694;28;20035;-72
2023/09/07 01:17:07;;;;;;;2.03;1.17;;;;;;;;;;4937491;29;20106;-73
2023/09/07 01:19:33;;;;;;;2.83;1.20;;;;;;;;;;4953550;29;20035;-73
2023/09/07 01:21:59;;;;;;;1.52;0.88;;;;;;;;;;4937433;29;20043;-73
2023/09/07 01:24:25;;;;;;;1.00;1.00;;;;;;;;;;4954718;28;20039;-73
2023/09/07 01:26:51;;;;;;;1.95;1.38;;;;;;;;;;4953711;28;20043;-72
2023/09/07 01:29:17;;;;;;;2.47;1.10;;;;;;;;;;4954381;28;20404;-71
2023/09/07 01:31:43;;;;;;;1.17;0.90;;;;;;;;;;4954846;28;20601;-72
2023/09/07 01:34:09;;;;;;;4.00;1.20;;;;;;;;;;4954344;28;20035;-74
2023/09/07 01:36:35;;;;;;;9.80;1.77;;;;;;;;;;4954658;28;20043;-73
2023/09/07 01:39:03;;;;;;;1.00;1.00;;;;;;;;;;4967763;28;20051;-72
2023/09/07 01:41:29;;;;;;;1.20;1.20;;;;;;;;;;4973741;28;20058;-73
2023/09/07 01:43:56;;;;;;;3.58;1.33;;;;;;;;;;4956318;28;20549;-72
2023/09/07 01:46:22;;;;;;;2.00;1.38;;;;;;;;;;4940195;28;20042;-72
2023/09/07 01:48:48;;;;;;;6.88;1.38;;;;;;;;;;4956288;28;20035;-74
2023/09/07 01:51:14;;;;;;;1.40;1.30;;;;;;;;;;4955878;28;20074;-72
2023/09/07 01:53:42;;;;;;;1.40;1.15;;;;;;;;;;4956205;28;20403;-72
2023/09/07 01:56:09;;;;;;;1.42;1.33;;;;;;;;;;4973423;28;20053;-70
2023/09/07 01:58:36;;;;;;;2.25;1.17;;;;;;;;;;4939716;28;20031;-71
2023/09/07 02:01:03;;;;;;;3.95;1.17;;;;;;;;;;4972174;28;20042;-71
2023/09/07 02:03:29;;;;;;;2.03;1.33;;;;;;;;;;4973472;28;20122;-72
2023/09/07 02:05:55;;;;;;;1.20;1.10;;;;;;;;;;4973442;28;20125;-72
2023/09/07 02:08:21;;;;;;;3.45;1.40;;;;;;;;;;4939694;28;20142;-72
2023/09/07 02:10:47;;;;;;;2.53;1.38;;;;;;;;;;4972042;28;20053;-71
2023/09/07 02:13:14;;;;;;;1.88;1.70;;;;;;;;;;4971589;28;20031;-71
2023/09/07 02:15:42;;;;;;;1.30;1.20;;;;;;;;;;4971881;28;20129;-72
2023/09/07 02:18:08;;;;;;;3.42;1.50;;;;;;;;;;4955651;28;20581;-70
2023/09/07 02:20:34;;;;;;;3.90;1.25;;;;;;;;;;4973177;28;20418;-72
2023/09/07 02:23:00;;;;;;;1.38;1.25;;;;;;;;;;4939540;28;20039;-73
2023/09/07 02:25:30;;;;;;;3.25;1.35;;;;;;;;;;4955643;28;20581;-73
2023/09/07 02:27:57;;;;;;;3.58;1.33;;;;;;;;;;4955707;28;20058;-71
2023/09/07 02:30:23;;;;;;;2.40;1.23;;;;;;;;;;4972463;28;20058;-73
2023/09/07 02:32:49;;;;;;;2.13;1.38;;;;;;;;;;4939497;28;20035;-74
2023/09/07 02:35:15;;;;;;;3.85;1.20;;;;;;;;;;4955065;28;20047;-72
2023/09/07 02:37:41;;;;;;;2.03;1.83;;;;;;;;;;4972435;28;20043;-72
2023/09/07 02:40:08;;;;;;;1.23;1.20;;;;;;;;;;4972444;28;20414;-72
2023/09/07 02:42:34;;;;;;;2.08;1.23;;;;;;;;;;4939264;28;20557;-73
2023/09/07 02:45:00;;;;;;;1.75;1.30;;;;;;;;;;4955352;28;20384;-73
2023/09/07 02:47:33;;;;;;;1.70;1.20;;;;;;;;;;4955180;28;20034;-72
2023/09/07 02:49:59;;;;;;;4.28;1.20;;;;;;;;;;4955187;28;20267;-72
2023/09/07 02:52:26;;;;;;;1.73;1.63;;;;;;;;;;4970913;28;20045;-73
2023/09/07 02:54:52;;;;;;;2.80;1.38;;;;;;;;;;4973611;28;20100;-70
2023/09/07 02:57:18;;;;;;;6.00;2.13;;;;;;;;;;4957067;28;20031;-71
2023/09/07 02:59:45;;;;;;;2.47;1.50;;;;;;;;;;4956996;28;20057;-72
2023/09/07 03:02:11;;;;;;;2.85;1.38;;;;;;;;;;4962586;28;20035;-72
2023/09/07 03:04:37;;;;;;;1.55;1.45;;;;;;;;;;4949888;28;20043;-72
2023/09/07 03:07:03;;;;;;;2.55;1.48;;;;;;;;;;4938547;28;20510;-72
2023/09/07 03:09:29;;;;;;;4.22;1.65;;;;;;;;;;4970917;28;20094;-74
2023/09/07 03:11:55;;;;;;;4.60;1.67;;;;;;;;;;4972408;28;20061;-72
2023/09/07 03:14:22;;;;;;;3.75;1.60;;;;;;;;;;4939002;28;20109;-72
2023/09/07 03:16:51;;;;;;;6.93;1.40;;;;;;;;;;4972107;28;20038;-73
2023/09/07 03:19:17;;;;;;;2.17;1.40;;;;;;;;;;4954401;28;20066;-72
2023/09/07 03:21:43;;;;;;;3.05;1.40;;;;;;;;;;4954730;28;20038;-73
2023/09/07 03:24:10;;;;;;;1.88;1.40;;;;;;;;;;4954671;28;20396;-72
2023/09/07 03:26:36;;;;;;;2.28;1.30;;;;;;;;;;4954813;28;20154;-72
2023/09/07 03:29:03;;;;;;;3.67;1.30;;;;;;;;;;4943802;28;20040;-73
2023/09/07 03:31:30;;;;;;;3.47;1.02;;;;;;;;;;4963112;28;20743;-72
2023/09/07 03:33:56;;;;;;;2.20;1.45;;;;;;;;;;4960643;28;20027;-73
2023/09/07 03:36:22;;;;;;;4.18;1.70;;;;;;;;;;4944733;28;20102;-72
2023/09/07 03:38:48;;;;;;;1.17;1.13;;;;;;;;;;4960402;28;20055;-72
2023/09/07 03:41:15;;;;;;;1.27;1.17;;;;;;;;;;4947060;28;20035;-72
2023/09/07 03:43:41;;;;;;;1.52;1.27;;;;;;;;;;4963134;28;20080;-72
2023/09/07 03:46:07;;;;;;;1.50;1.40;;;;;;;;;;4951083;28;20120;-73
2023/09/07 03:48:34;;;;;;;3.03;1.30;;;;;;;;;;4954315;28;20039;-73
2023/09/07 03:51:00;;;;;;;6.93;1.35;;;;;;;;;;4971645;28;20069;-73
2023/09/07 03:53:26;;;;;;;5.07;1.40;;;;;;;;;;4938140;28;20030;-73
2023/09/07 03:55:52;;;;;;;1.15;1.13;;;;;;;;;;4946666;28;20046;-73
2023/09/07 03:58:20;;;;;;;1.13;1.13;;;;;;;;;;4935234;29;20163;-73
2023/09/07 04:00:47;;;;;;;1.30;1.20;;;;;;;;;;4935508;29;20043;-73
2023/09/07 04:03:14;;;;;;;1.30;1.20;;;;;;;;;;4935320;29;20039;-73
2023/09/07 04:05:40;;;;;;;2.78;1.27;;;;;;;;;;4952080;29;20105;-73
2023/09/07 04:08:07;;;;;;;3.80;1.70;;;;;;;;;;4935100;29;20039;-74
2023/09/07 04:10:33;;;;;;;0.95;0.88;;;;;;;;;;4951104;28;20047;-73
2023/09/07 04:12:59;;;;;;;1.50;1.40;;;;;;;;;;4937382;28;20033;-74
2023/09/07 04:15:28;;;;;;;3.90;1.30;;;;;;;;;;4937935;28;20333;-73
2023/09/07 04:17:54;;;;;;;2.53;1.40;;;;;;;;;;4935054;29;20078;-72
2023/09/07 04:20:21;;;;;;;1.50;1.40;;;;;;;;;;4935647;28;20071;-74
2023/09/07 04:22:47;;;;;;;1.40;1.30;;;;;;;;;;4908622;29;20038;-74
2023/09/07 04:25:13;;;;;;;1.58;1.48;;;;;;;;;;4917038;28;20050;-73
2023/09/07 04:27:39;;;;;;;1.50;1.30;;;;;;;;;;4956949;28;20031;-74
2023/09/07 04:30:07;;;;;;;1.20;1.17;;;;;;;;;;4953070;28;20046;-74
2023/09/07 04:32:33;;;;;;;3.58;1.73;;;;;;;;;;4956009;28;20530;-73
2023/09/07 04:35:01;;;;;;;6.10;1.50;;;;;;;;;;4971618;28;20043;-73
2023/09/07 04:37:30;;;;;;;1.58;1.42;;;;;;;;;;4971980;28;20042;-74
2023/09/07 04:39:56;;;;;;;1.10;1.10;;;;;;;;;;4972464;28;20070;-74
2023/09/07 04:42:26;;;;;;;1.60;1.40;;;;;;;;;;4938851;28;20479;-69
2023/09/07 04:44:52;;;;;;;3.17;1.50;;;;;;;;;;4970712;28;20053;-69
2023/09/07 04:47:18;;;;;;;1.65;1.33;;;;;;;;;;4971985;28;20580;-69
2023/09/07 04:49:52;;;;;;;6.38;1.40;;;;;;;;;;4956917;28;20046;-69
2023/09/07 04:52:20;;;;;;;3.08;1.40;;;;;;;;;;4941869;28;20034;-69
2023/09/07 04:54:46;;;;;;;3.97;1.38;;;;;;;;;;4974679;28;20065;-69
2023/09/07 04:57:17;;;;;;;1.67;1.58;;;;;;;;;;4953061;28;20514;-68
2023/09/07 04:59:44;;;;;;;1.23;1.10;;;;;;;;;;4938976;28;20130;-68
2023/09/07 05:02:11;;;;;;;2.92;1.42;;;;;;;;;;4921172;29;20260;-68
2023/09/07 05:04:38;;;;;;;1.60;1.42;;;;;;;;;;4952649;29;20031;-68
2023/09/07 05:07:03;;;;;;;1.55;1.40;;;;;;;;;;4937172;29;20042;-68
2023/09/07 05:09:30;;;;;;;1.55;1.45;;;;;;;;;;4954099;29;20988;-67
2023/09/07 05:11:56;;;;;;;3.40;1.50;;;;;;;;;;4936853;29;20093;-68
2023/09/07 05:14:23;;;;;;;4.88;1.90;;;;;;;;;;4936571;29;20057;-68
2023/09/07 05:16:49;;;;;;;1.80;1.27;;;;;;;;;;4921243;29;20046;-68
2023/09/07 05:19:15;;;;;;;1.90;1.40;;;;;;;;;;4953771;29;20434;-68
2023/09/07 05:21:41;;;;;;;2.28;1.35;;;;;;;;;;4937225;29;20038;-68
2023/09/07 05:24:06;;;;;;;1.48;1.38;;;;;;;;;;4969170;28;20042;-67
2023/09/07 05:26:32;;;;;;;3.50;1.40;;;;;;;;;;4936824;29;20051;-67
2023/09/07 05:28:59;;;;;;;2.30;1.30;;;;;;;;;;4936769;29;20445;-68
2023/09/07 05:31:25;;;;;;;4.85;1.70;;;;;;;;;;4953551;28;20047;-69
2023/09/07 05:33:51;;;;;;;6.38;1.60;;;;;;;;;;4920478;29;20043;-68
2023/09/07 05:36:17;;;;;;;1.30;1.30;;;;;;;;;;4936814;29;20061;-70
2023/09/07 05:38:43;;;;;;;2.47;1.48;;;;;;;;;;4954151;29;20050;-69
2023/09/07 05:41:09;;;;;;;1.73;1.60;;;;;;;;;;4937148;28;20042;-67
2023/09/07 05:43:35;;;;;;;5.22;1.45;;;;;;;;;;4936638;29;20507;-70
2023/09/07 05:46:02;;;;;;;3.10;1.48;;;;;;;;;;4921210;29;20046;-69
2023/09/07 05:48:28;;;;;;;1.83;1.73;;;;;;;;;;4936471;29;20066;-76
2023/09/07 05:50:54;;;;;;;2.05;1.33;;;;;;;;;;4937144;29;20055;-76
2023/09/07 05:53:20;;;;;;;2.97;1.30;;;;;;;;;;4937253;29;20396;-77
2023/09/07 05:55:46;;;;;;;2.00;1.20;;;;;;;;;;4936987;29;20043;-77
2023/09/07 05:58:14;;;;;;;2.97;1.60;;;;;;;;;;4954341;29;20062;-76
2023/09/07 06:00:43;;;;;;;2.35;1.40;;;;;;;;;;4954100;29;20122;-76
2023/09/07 06:03:09;;;;;;;3.83;1.42;;;;;;;;;;4937310;29;20097;-77
2023/09/07 06:05:36;;;;;;;5.88;1.55;;;;;;;;;;4920697;29;20031;-77
2023/09/07 06:08:02;;;;;;;1.15;1.15;;;;;;;;;;4906007;29;20414;-76
2023/09/07 06:10:29;;;;;;;2.15;1.35;;;;;;;;;;4936703;29;20043;-77
2023/09/07 06:12:56;;;;;;;2.63;1.17;;;;;;;;;;4937112;29;20035;-76
2023/09/07 06:15:23;;;;;;;3.13;1.55;;;;;;;;;;4936502;29;20050;-77
2023/09/07 06:17:49;;;;;;;4.15;1.40;;;;;;;;;;4936743;29;20035;-78
2023/09/07 06:20:16;;;;;;;1.30;1.30;;;;;;;;;;4936505;29;20176;-76
2023/09/07 06:22:45;;;;;;;1.50;1.40;;;;;;;;;;4920973;29;20307;-77
2023/09/07 06:25:11;;;;;;;1.65;1.13;;;;;;;;;;4936637;29;20567;-77
2023/09/07 06:27:37;;;;;;;2.72;1.45;;;;;;;;;;4936392;29;20039;-76
2023/09/07 06:30:05;;;;;;;4.07;1.20;;;;;;;;;;4936560;29;20054;-77
2023/09/07 06:32:32;;;;;;;4.25;1.38;;;;;;;;;;4936296;29;20122;-77
2023/09/07 06:34:58;;;;;;;3.38;1.60;;;;;;;;;;4936983;29;20630;-77
2023/09/07 06:37:25;;;;;;;2.17;1.58;;;;;;;;;;4953136;29;20038;-76
2023/09/07 06:39:51;;;;;;;3.60;1.48;;;;;;;;;;4954288;29;20122;-77
2023/09/07 06:42:17;;;;;;;1.83;1.58;;;;;;;;;;4923092;29;20038;-77
2023/09/07 06:44:47;;;;;;;1.88;1.50;;;;;;;;;;4939570;29;20035;-77
2023/09/07 06:47:13;;;;;;;4.72;1.70;;;;;;;;;;4942930;29;20051;-77
2023/09/07 06:49:40;;;;;;;1.77;1.27;;;;;;;;;;4945262;29;20156;-77
2023/09/07 06:52:06;;;;;;;6.25;1.80;;;;;;;;;;4944059;29;20067;-77
2023/09/07 06:54:34;;;;;;;3.97;1.40;;;;;;;;;;4936671;29;20047;-76
2023/09/07 06:57:01;;;;;;;2.72;2.20;;;;;;;;;;4920546;29;20146;-77
2023/09/07 06:59:27;;;;;;;3.15;1.40;;;;;;;;;;4936000;29;20047;-77
2023/09/07 07:01:53;;;;;;;4.53;1.50;;;;;;;;;;4936553;29;20046;-77
2023/09/07 07:04:20;;;;;;;1.50;1.40;;;;;;;;;;4936568;29;20039;-77
2023/09/07 07:06:46;;;;;;;4.10;1.15;;;;;;;;;;4953568;29;20039;-78
2023/09/07 07:09:13;;;;;;;5.03;1.40;;;;;;;;;;4937014;29;20035;-77
2023/09/07 07:11:41;;;;;;;1.70;1.30;;;;;;;;;;4921218;29;20039;-79
2023/09/07 07:14:08;;;;;;;1.92;1.40;;;;;;;;;;4936533;29;20070;-78
2023/09/07 07:16:34;;;;;;;8.30;1.90;;;;;;;;;;4936281;29;20062;-78
2023/09/07 07:19:00;;;;;;;2.92;1.25;;;;;;;;;;4920695;29;20042;-78
2023/09/07 07:21:26;;;;;;;2.63;1.50;;;;;;;;;;4935234;29;20035;-80
2023/09/07 07:23:52;;;;;;;6.22;1.85;;;;;;;;;;4935648;29;20039;-78
2023/09/07 07:26:19;;;;;;;2.13;1.30;;;;;;;;;;4935404;29;20199;-78
2023/09/07 07:28:45;;;;;;;1.83;1.40;;;;;;;;;;4919647;29;20046;-78
2023/09/07 07:31:11;;;;;;;1.08;0.90;;;;;;;;;;4936733;28;20050;-79
2023/09/07 07:33:42;;;;;;;7.10;1.23;;;;;;;;;;4920219;29;20083;-79
2023/09/07 07:36:08;;;;;;;8.40;1.52;;;;;;;;;;4955971;28;20039;-78
2023/09/07 07:38:35;;;;;;;4.40;1.23;;;;;;;;;;4953259;28;20051;-78
2023/09/07 07:41:01;;;;;;;0.90;0.90;;;;;;;;;;4953913;28;20037;-79
2023/09/07 07:43:27;;;;;;;2.88;1.60;;;;;;;;;;4953661;28;20038;-76
2023/09/07 07:45:53;;;;;;;2.05;1.30;;;;;;;;;;4953693;28;20414;-79
2023/09/07 07:48:21;;;;;;;3.72;1.33;;;;;;;;;;4954100;28;20333;-79
2023/09/07 07:50:46;;;;;;;1.75;1.48;;;;;;;;;;4937573;28;20700;-77
2023/09/07 07:53:14;;;;;;;2.83;1.38;;;;;;;;;;4969830;28;20038;-79
2023/09/07 07:55:42;;;;;;;2.78;1.70;;;;;;;;;;4937443;28;20040;-77
2023/09/07 07:58:19;;;;;;;2.38;0.88;;;;;;;;;;4922639;28;20640;-79
2023/09/07 08:00:47;;;;;;;4.18;1.65;;;;;;;;;;4953821;28;20045;-78
2023/09/07 08:03:16;;;;;;;6.78;1.30;;;;;;;;;;4953804;28;20651;-76
2023/09/07 08:05:43;;;;;;;5.13;1.50;;;;;;;;;;4953482;28;20034;-79
2023/09/07 08:08:13;;;;;;;5.18;1.30;;;;;;;;;;4938055;28;20034;-78
2023/09/07 08:10:41;;;;;;;3.58;1.90;;;;;;;;;;4953955;28;20047;-77
2023/09/07 08:13:09;;;;;;;5.70;1.80;;;;;;;;;;4953723;28;20058;-78
2023/09/07 08:15:36;;;;;;;2.55;1.60;;;;;;;;;;4953400;28;20043;-79
2023/09/07 08:18:04;;;;;;;2.55;1.33;;;;;;;;;;4971810;28;20101;-80
2023/09/07 08:20:31;;;;;;;3.05;1.40;;;;;;;;;;4952149;28;20043;-78
2023/09/07 08:22:58;;;;;;;7.30;1.73;;;;;;;;;;4926382;28;20031;-78
2023/09/07 08:25:26;;;;;;;1.92;1.40;;;;;;;;;;4952784;28;20106;-80
2023/09/07 08:27:55;;;;;;;1.35;1.27;;;;;;;;;;4970734;28;20073;-76
2023/09/07 08:30:24;;;;;;;2.22;1.60;;;;;;;;;;4970335;28;20843;-77
2023/09/07 08:32:51;;;;;;;2.30;1.45;;;;;;;;;;4954109;28;20126;-79
2023/09/07 08:35:17;;;;;;;2.58;1.00;;;;;;;;;;4953396;28;20427;-78
2023/09/07 08:37:43;;;;;;;7.70;1.40;;;;;;;;;;4970229;28;20042;-78
2023/09/07 08:40:11;;;;;;;1.38;0.80;;;;;;;;;;4952462;28;20038;-78
2023/09/07 08:42:38;;;;;;;3.25;0.93;;;;;;;;;;4952618;28;20133;-78
2023/09/07 08:45:08;;;;;;;3.40;1.15;;;;;;;;;;4937369;28;20096;-76
2023/09/07 08:47:35;;;;;;;3.58;1.15;;;;;;;;;;4970270;28;20697;-77
2023/09/07 08:50:02;;;;;;;1.85;1.17;;;;;;;;;;4970195;28;20043;-77
2023/09/07 08:52:31;;;;;;;4.22;1.00;;;;;;;;;;4953480;28;20062;-76
2023/09/07 08:54:58;;;;;;;4.47;1.20;;;;;;;;;;4953570;28;20635;-76
2023/09/07 08:57:24;;;;;;;1.63;1.00;;;;;;;;;;4951509;28;20083;-77
2023/09/07 08:59:50;;;;;;;4.25;1.42;;;;;;;;;;4942211;28;20054;-76
2023/09/07 09:02:17;;;;;;;2.05;0.80;;;;;;;;;;4953149;28;20041;-76
2023/09/07 09:04:43;;;;;;;4.93;1.10;;;;;;;;;;4969912;28;20728;-76
2023/09/07 09:07:09;;;;;;;4.20;1.10;;;;;;;;;;4954938;28;20043;-78
2023/09/07 09:09:35;;;;;;;1.55;1.10;;;;;;;;;;4940570;28;20054;-78
2023/09/07 09:12:09;;;;;;;7.13;1.10;;;;;;;;;;4957024;28;20034;-79
2023/09/07 09:14:35;;;;;;;2.35;1.17;;;;;;;;;;4973941;28;20083;-78
2023/09/07 09:17:01;;;;;;;3.75;1.10;;;;;;;;;;4974255;28;20070;-79
2023/09/07 09:19:31;;;;;;;6.13;1.80;;;;;;;;;;4973390;28;20532;-78
2023/09/07 09:21:57;;;;;;;5.57;1.40;;;;;;;;;;4957196;28;20041;-79
2023/09/07 09:24:23;;;;;;;9.50;1.10;;;;;;;;;;4957377;28;20031;-79
2023/09/07 09:26:49;;;;;;;6.43;1.10;;;;;;;;;;4973709;28;20070;-80
2023/09/07 09:29:15;;;;;;;6.38;1.20;;;;;;;;;;4956732;28;20039;-78
2023/09/07 09:31:41;;;;;;;5.88;1.23;;;;;;;;;;4956461;28;20038;-80
2023/09/07 09:34:07;;;;;;;0.90;0.90;;;;;;;;;;4974303;28;20062;-80
2023/09/07 09:36:34;;;;;;;0.80;0.80;;;;;;;;;;4956506;28;20046;-78
2023/09/07 09:39:07;;;;;;;3.97;1.13;;;;;;;;;;4964662;28;20061;-79
2023/09/07 09:41:36;;;;;;;1.98;1.50;;;;;;;;;;4970987;28;20089;-78
2023/09/07 09:44:05;;;;;;;2.55;1.30;;;;;;;;;;4958000;28;20450;-79
2023/09/07 09:46:31;;;;;;;0.55;0.55;;;;;;;;;;4958193;28;20066;-79
2023/09/07 09:48:57;;;;;;;4.90;1.90;;;;;;;;;;4975277;28;20045;-80
2023/09/07 09:51:24;;;;;;;2.65;1.00;;;;;;;;;;4954409;29;20419;-78
2023/09/07 09:53:51;;;;;;;5.75;2.10;;;;;;;;;;4930703;29;20035;-79
2023/09/07 09:56:17;;;;;;;1.50;1.10;;;;;;;;;;4950419;28;20043;-79
2023/09/07 09:58:43;;;;;;;3.30;1.02;;;;;;;;;;4968982;28;20126;-78
2023/09/07 10:01:09;;;;;;;2.10;1.08;;;;;;;;;;4953015;28;20524;-78
2023/09/07 10:03:45;;;;;;;1.02;0.80;;;;;;;;;;4964876;28;20089;-78
2023/09/07 10:06:12;;;;;;;7.75;1.00;;;;;;;;;;4956345;28;20037;-78
2023/09/07 10:08:38;;;;;;;0.90;0.90;;;;;;;;;;4956656;28;20125;-78
2023/09/07 10:11:08;;;;;;;2.88;1.60;;;;;;;;;;4973616;28;20057;-79
2023/09/07 10:13:34;;;;;;;3.00;1.10;;;;;;;;;;4975739;28;20089;-78
2023/09/07 10:16:07;;;;;;;6.43;1.40;;;;;;;;;;4958114;28;20042;-78
2023/09/07 10:18:37;;;;;;;3.17;1.20;;;;;;;;;;4979008;28;20129;-77
2023/09/07 10:21:03;;;;;;;1.58;1.02;;;;;;;;;;4954818;28;20043;-78
2023/09/07 10:23:36;;;;;;;2.13;1.92;;;;;;;;;;4975572;28;20035;-79
2023/09/07 10:26:04;;;;;;;2.78;1.08;;;;;;;;;;4957172;28;20034;-78
2023/09/07 10:28:30;;;;;;;1.55;1.00;;;;;;;;;;4975067;28;20027;-79
2023/09/07 10:31:00;;;;;;;1.70;1.60;;;;;;;;;;4960176;28;20130;-79
2023/09/07 10:33:26;;;;;;;2.22;1.35;;;;;;;;;;4955685;29;20097;-80
2023/09/07 10:35:52;;;;;;;3.45;1.27;;;;;;;;;;4926894;28;20047;-78
2023/09/07 10:38:19;;;;;;;3.38;1.20;;;;;;;;;;4955629;29;20050;-79
2023/09/07 10:40:45;;;;;;;3.53;1.20;;;;;;;;;;4936164;29;20071;-79
2023/09/07 10:43:11;;;;;;;0.93;0.93;;;;;;;;;;4948850;28;20036;-79
2023/09/07 10:45:37;;;;;;;5.03;1.13;;;;;;;;;;4942797;29;20136;-79
2023/09/07 10:48:03;;;;;;;1.38;0.98;;;;;;;;;;4940775;28;20027;-78
2023/09/07 10:50:30;;;;;;;4.45;2.40;;;;;;;;;;4952174;28;20051;-79
2023/09/07 10:52:56;;;;;;;1.42;1.33;;;;;;;;;;4953528;28;20031;-79
2023/09/07 10:55:22;;;;;;;1.10;1.10;;;;;;;;;;4936456;29;20039;-78
2023/09/07 10:57:49;;;;;;;2.97;1.10;;;;;;;;;;4935612;29;20103;-79
2023/09/07 11:00:15;;;;;;;6.57;1.00;;;;;;;;;;4943693;29;20411;-78
2023/09/07 11:02:41;;;;;;;2.72;0.93;;;;;;;;;;4952862;29;20175;-78
2023/09/07 11:05:07;;;;;;;2.67;1.30;;;;;;;;;;4952160;28;20035;-78
2023/09/07 11:07:33;;;;;;;4.88;1.60;;;;;;;;;;4951327;28;20570;-78
2023/09/07 11:09:59;;;;;;;4.85;1.25;;;;;;;;;;4935664;29;20102;-79
2023/09/07 11:12:25;;;;;;;6.20;1.20;;;;;;;;;;4951762;28;20031;-78
2023/09/07 11:14:54;;;;;;;4.18;1.73;;;;;;;;;;4951807;28;20046;-79
2023/09/07 11:17:27;;;;;;;2.65;1.30;;;;;;;;;;4953216;28;20035;-79
2023/09/07 11:19:54;;;;;;;4.35;1.42;;;;;;;;;;4932791;29;20047;-78
2023/09/07 11:22:20;;;;;;;3.58;1.15;;;;;;;;;;4953482;29;20171;-78
2023/09/07 11:24:46;;;;;;;4.95;1.38;;;;;;;;;;4933749;29;20082;-79
2023/09/07 11:27:12;;;;;;;1.20;1.10;;;;;;;;;;4952039;29;20531;-78
2023/09/07 11:29:39;;;;;;;2.20;1.30;;;;;;;;;;4934584;29;20038;-79
2023/09/07 11:32:05;;;;;;;1.02;0.90;;;;;;;;;;4951625;29;20043;-78
2023/09/07 11:34:32;;;;;;;5.35;1.20;;;;;;;;;;4951451;29;20523;-79
2023/09/07 11:36:58;;;;;;;1.88;1.30;;;;;;;;;;4918959;29;20054;-79
2023/09/07 11:39:27;;;;;;;1.95;1.20;;;;;;;;;;4969000;28;20114;-78
2023/09/07 11:41:54;;;;;;;2.65;1.08;;;;;;;;;;4965374;28;20657;-78
2023/09/07 11:44:20;;;;;;;1.35;1.25;;;;;;;;;;4947979;28;20043;-79
2023/09/07 11:46:49;;;;;;;1.27;1.20;;;;;;;;;;4971572;28;20121;-78
2023/09/07 11:49:19;;;;;;;4.43;2.22;;;;;;;;;;4954636;28;20110;-78
2023/09/07 11:51:46;;;;;;;3.70;1.58;;;;;;;;;;4935465;29;20046;-78
2023/09/07 11:54:12;;;;;;;1.10;1.08;;;;;;;;;;4966969;28;20634;-79
2023/09/07 11:56:42;;;;;;;2.90;1.17;;;;;;;;;;4955718;28;20043;-79
2023/09/07 11:59:09;;;;;;;2.35;1.13;;;;;;;;;;4970723;28;20411;-78
2023/09/07 12:01:35;;;;;;;2.42;1.20;;;;;;;;;;4908037;29;20038;-79
2023/09/07 12:04:03;;;;;;;2.97;1.05;;;;;;;;;;4964843;28;20043;-79
2023/09/07 12:06:29;;;;;;;2.08;1.10;;;;;;;;;;4946135;29;20520;-79
2023/09/07 12:08:59;;;;;;;1.98;1.20;;;;;;;;;;4950447;28;20054;-78
2023/09/07 12:11:25;;;;;;;4.03;1.30;;;;;;;;;;4934987;29;20047;-78
2023/09/07 12:13:51;;;;;;;3.08;1.50;;;;;;;;;;4967605;28;20050;-79
2023/09/07 12:16:17;;;;;;;1.13;0.85;;;;;;;;;;4954293;28;20533;-78
2023/09/07 12:18:43;;;;;;;1.40;1.08;;;;;;;;;;4970990;28;20077;-80
2023/09/07 12:21:09;;;;;;;2.15;1.30;;;;;;;;;;4971588;28;20196;-79
2023/09/07 12:23:34;;;;;;;1.77;1.45;;;;;;;;;;4953932;28;20601;-80
2023/09/07 12:26:06;;;;;;;7.63;1.42;;;;;;;;;;4934680;29;20390;-79
2023/09/07 12:28:33;;;;;;;12.77;1.73;;;;;;;;;;4968252;28;20099;-79
2023/09/07 12:30:58;;;;;;;2.90;1.40;;;;;;;;;;4971220;28;20039;-79
2023/09/07 12:33:24;;;;;;;4.10;1.20;;;;;;;;;;4971396;28;20521;-79
2023/09/07 12:35:51;;;;;;;1.83;1.45;;;;;;;;;;4971153;28;20038;-79
2023/09/07 12:38:19;;;;;;;1.88;1.10;;;;;;;;;;4908663;28;20047;-78
2023/09/07 12:40:46;;;;;;;1.23;1.13;;;;;;;;;;4970770;28;20086;-78
2023/09/07 12:43:12;;;;;;;1.85;1.30;;;;;;;;;;4941739;28;20125;-79
2023/09/07 12:45:38;;;;;;;1.50;1.08;;;;;;;;;;4941618;28;20038;-80
2023/09/07 12:48:06;;;;;;;2.45;0.90;;;;;;;;;;4941721;28;20506;-79
2023/09/07 12:50:32;;;;;;;1.83;1.40;;;;;;;;;;4974886;28;20050;-79
2023/09/07 12:52:57;;;;;;;3.88;1.50;;;;;;;;;;4959078;28;20430;-79
2023/09/07 12:55:24;;;;;;;4.22;1.30;;;;;;;;;;4937715;28;20035;-79
2023/09/07 12:57:50;;;;;;;6.80;1.45;;;;;;;;;;4937987;29;20463;-79
2023/09/07 13:00:17;;;;;;;1.33;1.23;;;;;;;;;;4937743;28;20055;-79
2023/09/07 13:02:45;;;;;;;1.50;0.98;;;;;;;;;;4943191;28;20475;-79
2023/09/07 13:05:12;;;;;;;6.35;1.65;;;;;;;;;;4942842;28;20051;-79
2023/09/07 13:07:38;;;;;;;1.40;1.30;;;;;;;;;;4955415;28;20519;-79
2023/09/07 13:10:05;;;;;;;2.80;1.25;;;;;;;;;;4954413;28;20043;-80
2023/09/07 13:12:31;;;;;;;4.00;1.40;;;;;;;;;;4955575;28;20039;-78
2023/09/07 13:14:57;;;;;;;1.08;1.08;;;;;;;;;;4954079;29;20077;-79
2023/09/07 13:17:24;;;;;;;6.53;1.27;;;;;;;;;;4924072;28;20030;-79
2023/09/07 13:19:50;;;;;;;5.97;0.82;;;;;;;;;;4956495;28;20022;-79
2023/09/07 13:22:16;;;;;;;5.65;1.33;;;;;;;;;;4940926;28;20031;-78
2023/09/07 13:24:45;;;;;;;2.33;1.30;;;;;;;;;;4940416;28;20160;-78
2023/09/07 13:27:11;;;;;;;2.35;1.27;;;;;;;;;;4937671;29;20059;-80
2023/09/07 13:29:38;;;;;;;2.30;0.90;;;;;;;;;;4913135;29;20043;-80
2023/09/07 13:32:04;;;;;;;1.35;0.98;;;;;;;;;;4938631;29;20174;-81
2023/09/07 13:34:30;;;;;;;3.05;1.40;;;;;;;;;;4922179;29;20067;-79
2023/09/07 13:36:56;;;;;;;0.93;0.93;;;;;;;;;;4958446;28;20033;-79
2023/09/07 13:39:23;;;;;;;1.55;1.15;;;;;;;;;;4966228;28;20046;-78
2023/09/07 13:41:49;;;;;;;1.27;1.08;;;;;;;;;;4964966;28;20039;-79
2023/09/07 13:44:15;;;;;;;1.20;1.20;;;;;;;;;;4956332;28;20045;-80
2023/09/07 13:46:42;;;;;;;2.38;1.48;;;;;;;;;;4909070;28;20141;-78
2023/09/07 13:49:08;;;;;;;4.70;0.90;;;;;;;;;;4926511;29;20090;-79
2023/09/07 13:51:38;;;;;;;1.75;1.20;;;;;;;;;;4920489;28;20047;-78
2023/09/07 13:54:07;;;;;;;;;;;;;;;;;;4945242;28;20030;-79
2023/09/07 13:56:33;;;;;;;5.45;1.20;;;;;;;;;;4957718;28;20022;-79
2023/09/07 13:59:02;;;;;;;4.18;1.30;;;;;;;;;;4939431;29;20125;-78
2023/09/07 14:01:28;;;;;;;3.08;0.95;;;;;;;;;;4943875;28;20065;-78
2023/09/07 14:03:54;;;;;;;2.78;1.10;;;;;;;;;;4911744;28;20428;-78
2023/09/07 14:06:23;;;;;;;2.47;1.67;;;;;;;;;;4948118;29;20431;-79
2023/09/07 14:08:51;;;;;;;3.88;0.98;;;;;;;;;;4920646;28;20082;-79
2023/09/07 14:11:17;;;;;;;4.32;1.20;;;;;;;;;;4945983;28;20129;-79
2023/09/07 14:13:43;;;;;;;4.40;1.15;;;;;;;;;;4939709;28;20582;-79
2023/09/07 14:16:12;;;;;;;5.05;1.17;;;;;;;;;;4931488;29;20071;-79
2023/09/07 14:18:37;;;;;;;7.68;1.25;;;;;;;;;;4940543;28;20026;-78
2023/09/07 14:21:04;;;;;;;1.50;1.40;;;;;;;;;;4913682;29;20411;-78
2023/09/07 14:23:31;;;;;;;2.90;1.30;;;;;;;;;;4952983;28;20502;-78
2023/09/07 14:25:58;;;;;;;3.90;1.30;;;;;;;;;;4955334;28;20027;-79
2023/09/07 14:28:24;;;;;;;3.30;1.33;;;;;;;;;;4924268;28;20121;-79
2023/09/07 14:30:53;;;;;;;4.70;1.30;;;;;;;;;;4924555;28;20053;-79
2023/09/07 14:33:19;;;;;;;1.17;1.10;;;;;;;;;;4940453;28;20455;-79
2023/09/07 14:35:46;;;;;;;5.68;1.70;;;;;;;;;;4972322;28;20183;-79
2023/09/07 14:38:12;;;;;;;3.15;1.95;;;;;;;;;;4972395;28;20055;-78
2023/09/07 14:40:39;;;;;;;2.10;1.50;;;;;;;;;;4923513;28;20126;-78